ADDS METAR Data INFO
IDs: Format: Raw Decoded Include TAF

Data at: 0840 UTC 21 Oct 2017

KCPW 210830Z AUTO 23012G26KT 190V270 10SM SCT024 BKN034 OVC070 M02/M05 A3005 RMK AO2
KCPW 210810Z AUTO 22016G28KT 190V260 10SM SCT027 BKN033 OVC042 M01/M05 A3004 RMK AO2
KCPW 210752Z AUTO 22016G31KT 10SM SCT027 BKN031 OVC042 M01/M05 A3004 RMK AO2 LTG DSNT NE
KCPW 210728Z AUTO 25017G33KT 10SM SCT025 BKN029 OVC050 M01/M05 A3004 RMK AO2
KCPW 210710Z AUTO 23017G30KT 10SM BKN028 BKN039 OVC080 M01/M05 A3002 RMK AO2
KCPW 210641Z AUTO 24014G32KT 210V280 10SM SCT029 BKN035 OVC060 00/M05 A3002 RMK AO2
KCPW 210633Z AUTO 22022G36KT 10SM SCT027 BKN044 OVC060 00/M05 A3001 RMK AO2
KCPW 210608Z AUTO 22026G37KT 10SM BKN032 BKN041 OVC049 00/M05 A3000 RMK AO2
KCPW 210553Z AUTO 22028G42KT 10SM SCT022 BKN032 OVC047 00/M05 A3000 RMK AO2
KCPW 210525Z AUTO 22027G43KT 10SM SCT029 BKN036 OVC045 00/M04 A2999 RMK AO2
KCPW 210514Z AUTO 21025G44KT 7SM SCT029 OVC033 00/M04 A2999 RMK AO2
KCPW 210447Z AUTO 22026G40KT 10SM SCT028 OVC034 01/M03 A3001 RMK AO2
KCPW 210434Z AUTO 20028G42KT 10SM OVC034 00/M03 A2999 RMK AO2
KCPW 210407Z AUTO 22020G37KT 10SM OVC035 01/M03 A3001 RMK AO2
KCPW 210349Z AUTO 21020G50KT 1 3/4SM -SN SCT013 OVC037 00/M03 A3001 RMK AO2
KCPW 210325Z AUTO 20023G33KT 7SM SCT023 BKN039 OVC047 01/M03 A3000 RMK AO2
KCPW 210310Z AUTO 20019G32KT 10SM SCT017 SCT032 OVC041 01/M04 A3001 RMK AO2
KCPW 210249Z AUTO 20024G38KT 7SM -SN SCT021 BKN044 OVC065 01/M04 A3002 RMK AO2
KCPW 210230Z AUTO 21020G31KT 10SM BKN046 BKN050 OVC080 01/M06 A3003 RMK AO2
KCPW 210212Z AUTO 20019G30KT 10SM BKN046 OVC050 02/M06 A3005 RMK AO2
KCPW 210152Z AUTO 19016G30KT 10SM OVC050 02/M06 A3005 RMK AO2
KCPW 210134Z AUTO 21019G32KT 10SM BKN050 BKN060 OVC080 02/M06 A3007 RMK AO2
KCPW 210109Z AUTO 20018G31KT 10SM SCT050 BKN060 01/M05 A3006 RMK AO2
KCPW 210044Z AUTO 21020G33KT 10SM SCT048 BKN050 02/M05 A3007 RMK AO2
KCPW 210028Z AUTO 20023G36KT 10SM BKN047 02/M05 A3007 RMK AO2
KCPW 210011Z AUTO 19025G37KT 10SM BKN047 BKN060 02/M05 A3006 RMK AO2
KCPW 202353Z AUTO 21023G35KT 10SM SCT049 SCT060 02/M05 A3006 RMK AO2
KCPW 202330Z AUTO 20021G36KT 10SM SCT043 SCT049 02/M06 A3007 RMK AO2
KCPW 202312Z AUTO 20025G32KT 10SM SCT040 BKN047 03/M05 A3008 RMK AO2
KCPW 202253Z AUTO 20025G37KT 10SM SCT042 SCT049 02/M05 A3009 RMK AO2
KCPW 202234Z AUTO 20024G35KT 10SM SCT035 SCT044 SCT055 03/M04 A3009 RMK AO2
KCPW 202211Z AUTO 21024G35KT 10SM SCT035 SCT046 BKN050 02/M03 A3010 RMK AO2
KCPW 202153Z AUTO 21025G41KT 10SM SCT036 03/M03 A3009 RMK AO2
KCPW 202129Z AUTO 21027G44KT 10SM SCT029 SCT035 SCT050 03/M03 A3009 RMK AO2
KCPW 202110Z AUTO 20030G39KT 10SM SCT027 BKN035 BKN042 03/M02 A3008 RMK AO2
KCPW 202052Z AUTO 20025G39KT 10SM SCT027 SCT034 BKN046 03/M02 A3009 RMK AO2
KCPW 202034Z AUTO 22025G38KT 10SM SCT028 BKN033 BKN040 03/M02 A3011 RMK AO2
KCPW 202013Z AUTO 21021G35KT 10SM SCT022 BKN030 BKN036 02/M02 A3012 RMK AO2
KCPW 201951Z AUTO 20028G42KT 10SM SCT022 BKN030 BKN036 03/M01 A3012 RMK AO2
KCPW 201930Z AUTO 22023G38KT 10SM SCT012 SCT018 SCT024 03/M01 A3013 RMK AO2
KCPW 201914Z AUTO 20027G38KT 10SM SCT012 SCT017 SCT022 02/00 A3011 RMK AO2
KCPW 201848Z AUTO 21026G36KT 10SM SCT009 BKN015 OVC027 01/00 A3013 RMK AO2
KCPW 201832Z AUTO 21025G37KT 10SM BKN009 BKN015 BKN023 01/00 A3015 RMK AO2
KCPW 201814Z AUTO 21024G34KT 10SM SCT011 BKN017 BKN023 01/00 A3014 RMK AO2
KCPW 201750Z AUTO 20030G38KT 10SM SCT007 SCT012 BKN017 00/00 A3013 RMK AO2
KCPW 201729Z AUTO 20021G35KT 10SM SCT002 BKN007 BKN012 00/00 A3017 RMK AO2
KCPW 201708Z AUTO 20022G35KT 10SM BKN002 BKN008 OVC018 00/00 A3018 RMK AO2
KCPW 201654Z AUTO 20022G31KT 1/4SM -SN OVC002 00/00 A3019 RMK AO2
KCPW 201627Z AUTO 20019G31KT M1/4SM +SN OVC002 00/00 A3021 RMK AO2
KCPW 201608Z AUTO 20016G24KT M1/4SM +SN OVC002 00/00 A3022 RMK AO2
KCPW 201550Z AUTO 21019G26KT M1/4SM +SN OVC002 00/00 A3022 RMK AO2
KCPW 201533Z AUTO 20020G29KT M1/4SM +SN OVC002 00/00 A3022 RMK AO2
KCPW 201507Z AUTO 19017G27KT M1/4SM +SN OVC002 00/00 A3022 RMK AO2
KCPW 201451Z AUTO 20017G25KT M1/4SM +SN OVC002 00/00 A3023 RMK AO2
KCPW 201418Z AUTO 20014G20KT M1/4SM -SN OVC002 00/00 A3022 RMK AO2
KCPW 201401Z AUTO 22013G19KT M1/4SM +SN OVC002 M01/M01 A3022 RMK AO2
KCPW 201349Z AUTO 22013G22KT M1/4SM +SN OVC002 M01/M01 A3022 RMK AO2
KCPW 201325Z AUTO 22013G21KT M1/4SM +SN OVC002 M01/M01 A3023 RMK AO2
KCPW 201310Z AUTO 21009G15KT M1/4SM +SN OVC002 M01/M01 A3023 RMK AO2
KCPW 201248Z AUTO 19008KT M1/4SM -SN OVC002 M01/M01 A3025 RMK AO2
KCPW 201220Z AUTO 21008KT M1/4SM FZFG OVC002 00/00 A3025 RMK AO2
KCPW 201205Z AUTO 21006KT M1/4SM FZFG OVC002 00/00 A3026 RMK AO2
KCPW 201150Z AUTO 21007KT M1/4SM FZFG OVC002 00/00 A3026 RMK AO2
KCPW 201133Z AUTO 22009KT 1/4SM FZFG OVC002 M01/M01 A3026 RMK AO2
KCPW 201111Z AUTO 20008KT 1/4SM FZFG OVC002 M01/M01 A3026 RMK AO2
KCPW 201049Z AUTO 19009KT 1/2SM FZFG OVC004 M01/M01 A3027 RMK AO2
KCPW 201030Z AUTO 21009G14KT 1/4SM -SN OVC001 M01/M01 A3027 RMK AO2
KCPW 201000Z AUTO 22012G19KT 1/4SM +SN OVC001 M01/M01 A3029 RMK AO2
KCPW 200945Z AUTO 23010G16KT 1 1/2SM BR BKN001 OVC012 M01/M01 A3030 RMK AO2 VIS 1V5
KCPW 200930Z AUTO 22010KT 10SM SCT012 BKN034 OVC050 00/00 A3030 RMK AO2
KCPW 200911Z AUTO 22014G19KT 10SM BKN050 OVC090 00/00 A3030 RMK AO2
KCPW 200854Z AUTO 21015G18KT 10SM SCT014 OVC090 00/00 A3030 RMK AO2
KCPW 200824Z AUTO 19011G16KT 10SM BKN016 00/M01 A3031 RMK AO2
KCPW 200806Z AUTO 20011G17KT 10SM BKN018 00/M01 A3032 RMK AO2
KCPW 200746Z AUTO 21012G21KT 10SM BKN018 OVC024 00/M01 A3032 RMK AO2
KCPW 200727Z AUTO 20011G17KT 10SM BKN018 OVC024 00/M01 A3032 RMK AO2
KCPW 200707Z AUTO 20012G21KT 10SM OVC018 00/M01 A3033 RMK AO2
KCPW 200647Z AUTO 21010G19KT 10SM OVC018 00/M02 A3035 RMK AO2
KCPW 200628Z AUTO 20014G23KT 10SM BKN020 OVC026 01/M02 A3034 RMK AO2
KCPW 200614Z AUTO 20012G22KT 10SM OVC023 01/M02 A3034 RMK AO2
KCPW 200552Z AUTO 19012G24KT 10SM SCT026 BKN034 01/M02 A3035 RMK AO2
KCPW 200533Z AUTO 20014G21KT 10SM SCT029 01/M03 A3035 RMK AO2
KCPW 200458Z AUTO 19010G18KT 10SM BKN031 01/M03 A3036 RMK AO2
KCPW 200451Z AUTO 20009G15KT 10SM BKN031 01/M03 A3037 RMK AO2
KCPW 200434Z AUTO 20005KT 10SM CLR 00/M03 A3037 RMK AO2
KCPW 200409Z AUTO 20006KT 10SM CLR 01/M03 A3037 RMK AO2
KCPW 200348Z AUTO 21007G14KT 10SM CLR 01/M04 A3037 RMK AO2
KCPW 200316Z AUTO 19010G18KT 10SM CLR 01/M05 A3037 RMK AO2
KCPW 200302Z AUTO 19013G17KT 10SM CLR 02/M05 A3037 RMK AO2
KCPW 200248Z AUTO 19011G17KT 10SM CLR 02/M05 A3038 RMK AO2
KCPW 200228Z AUTO 20008KT 10SM CLR 02/M05 A3039 RMK AO2
KCPW 200210Z AUTO 22011G17KT 10SM SCT110 02/M05 A3039 RMK AO2 LTG DSNT SE
KCPW 200152Z AUTO 20012G19KT 10SM BKN110 02/M05 A3039 RMK AO2
KCPW 200124Z AUTO 20013G18KT 10SM CLR 03/M05 A3039 RMK AO2
KCPW 200107Z AUTO 20011G15KT 10SM CLR 03/M05 A3039 RMK AO2
KCPW 200043Z AUTO 21010G16KT 10SM CLR 03/M05 A3039 RMK AO2 LTG DSNT SE
KCPW 200031Z AUTO 20015G22KT 10SM CLR 04/M05 A3039 RMK AO2
KCPW 200007Z AUTO 21013G18KT 10SM CLR 05/M06 A3039 RMK AO2
KCPW 192346Z AUTO 21012G21KT 10SM CLR 06/M06 A3040 RMK AO2
KCPW 192327Z AUTO 21013G16KT 10SM CLR 06/M06 A3040 RMK AO2
KCPW 192310Z AUTO 19010G18KT 10SM CLR 06/M06 A3040 RMK AO2 LTG DSNT S
KCPW 192249Z AUTO 21012G18KT 10SM CLR 06/M07 A3041 RMK AO2 LTG DSNT SE
KCPW 192228Z AUTO 22014G20KT 10SM CLR 09/M07 A3041 RMK AO2 LTG DSNT S
KCPW 192212Z AUTO 20013G21KT 10SM CLR 08/M07 A3041 RMK AO2
KCPW 192153Z AUTO 21010G21KT 10SM CLR 07/M07 A3042 RMK AO2
KCPW 192127Z AUTO 20013G23KT 10SM CLR 08/M07 A3042 RMK AO2
KCPW 192109Z AUTO 21010G20KT 10SM SCT120 08/M08 A3042 RMK AO2
KCPW 192053Z AUTO 20009G17KT 130V240 10SM SCT120 08/M07 A3042 RMK AO2 LTG DSNT S